Time;durP1;ratioP1;P1;durP2;ratioP2;P2;SDS_P1;SDS_P2;PMS_P1;PMS_P2;Temp;Humidity;BMP_temperature;BMP_pressure;BME280_temperature;BME280_humidity;BME280_pressure;Samples;Min_cycle;Max_cycle;Signal;HPM_P1;HPM_P2
2022/08/09 00:04:05;;;;;;;5.30;4.70;;;;;;;13.63;70.69;100744.03;214033;1274;141462;-66
2022/08/09 00:09:29;;;;;;;8.10;4.20;;;;;;;13.52;70.91;100742.63;214011;1274;141465;-64
2022/08/09 00:14:35;;;;;;;5.40;4.70;;;;;;;13.44;71.40;100744.23;215607;1274;140821;-64
2022/08/09 00:19:41;;;;;;;5.80;5.10;;;;;;;13.42;71.67;100747.73;214619;1274;140437;-63
2022/08/09 00:24:50;;;;;;;5.70;5.20;;;;;;;13.50;72.02;100754.34;216060;1274;141497;-62
2022/08/09 00:29:55;;;;;;;5.70;4.90;;;;;;;13.59;72.16;100758.06;216189;1274;143028;-63
2022/08/09 00:35:29;;;;;;;6.30;5.10;;;;;;;13.78;72.75;100754.27;215888;1274;141435;-62
2022/08/09 00:40:46;;;;;;;5.30;4.40;;;;;;;13.93;72.89;100753.28;215383;1273;163159;-64
2022/08/09 00:45:55;;;;;;;8.00;5.10;;;;;;;13.95;72.77;100749.25;216286;1274;141462;-63
2022/08/09 00:51:02;;;;;;;5.20;4.80;;;;;;;14.01;73.34;100749.29;215822;1274;140518;-62
2022/08/09 00:56:17;;;;;;;4.30;4.00;;;;;;;14.02;73.18;100747.33;214311;1274;163501;-62
2022/08/09 01:01:29;;;;;;;8.30;5.20;;;;;;;14.01;73.27;100748.16;212896;1274;141455;-64
2022/08/09 01:07:01;;;;;;;15.00;4.60;;;;;;;14.06;73.73;100749.77;214895;1275;141817;-62
2022/08/09 01:12:26;;;;;;;6.10;4.90;;;;;;;14.22;73.69;100750.93;213636;1274;141118;-62
2022/08/09 01:17:36;;;;;;;9.20;4.40;;;;;;;14.38;74.18;100748.08;213862;1274;141544;-63
2022/08/09 01:23:14;;;;;;;3.80;3.50;;;;;;;14.51;73.98;100751.23;214895;1274;163495;-64
2022/08/09 01:28:43;;;;;;;7.50;4.90;;;;;;;14.48;73.69;100749.14;214789;1274;141190;-62
2022/08/09 01:33:49;;;;;;;6.70;4.90;;;;;;;14.49;74.01;100756.06;214571;1274;141443;-64
2022/08/09 01:38:55;;;;;;;5.20;4.80;;;;;;;14.53;74.00;100757.02;215320;1274;141568;-63
2022/08/09 01:44:02;;;;;;;8.10;4.30;;;;;;;14.52;74.16;100756.30;214396;1274;140229;-63
2022/08/09 01:49:19;;;;;;;7.70;5.20;;;;;;;14.52;74.00;100755.91;213931;1274;1394158;-64
2022/08/09 01:54:30;;;;;;;5.60;4.80;;;;;;;14.59;74.10;100763.77;215724;1274;139762;-62
2022/08/09 01:59:38;;;;;;;8.40;4.80;;;;;;;14.59;73.82;100765.52;214798;1274;140333;-64
2022/08/09 02:04:55;;;;;;;4.80;4.30;;;;;;;14.61;74.20;100762.36;214640;1274;140930;-64
2022/08/09 02:10:17;;;;;;;5.10;4.60;;;;;;;14.70;74.31;100771.21;214269;1274;141629;-64
2022/08/09 02:15:36;;;;;;;5.00;4.60;;;;;;;14.70;74.18;100770.79;214425;1274;151208;-64
2022/08/09 02:21:02;;;;;;;6.30;5.70;;;;;;;14.72;74.36;100778.55;214853;1274;139724;-64
2022/08/09 02:26:11;;;;;;;5.60;4.70;;;;;;;14.72;74.11;100775.61;214748;1274;141620;-64
2022/08/09 02:31:33;;;;;;;5.40;4.90;;;;;;;14.63;74.11;100770.76;213901;1274;143706;-65
2022/08/09 02:36:43;;;;;;;6.00;5.10;;;;;;;14.58;74.43;100772.26;214293;1273;152429;-64
2022/08/09 02:42:15;;;;;;;4.20;3.90;;;;;;;14.56;74.85;100768.98;216486;1274;140282;-65
2022/08/09 02:47:22;;;;;;;5.70;5.10;;;;;;;14.62;75.06;100771.88;214941;1274;140902;-64
2022/08/09 02:52:33;;;;;;;6.20;5.30;;;;;;;14.72;74.99;100775.98;214735;1274;141921;-64
2022/08/09 02:57:38;;;;;;;4.00;3.30;;;;;;;14.86;75.26;100775.31;214613;1274;141900;-64
2022/08/09 03:03:05;;;;;;;5.40;4.30;;;;;;;14.87;74.90;100774.60;214600;1274;140515;-64
2022/08/09 03:08:17;;;;;;;8.10;4.70;;;;;;;14.80;75.05;100774.44;215561;1273;141045;-64
2022/08/09 03:13:23;;;;;;;5.00;4.00;;;;;;;14.84;75.15;100782.79;214196;1274;141662;-64
2022/08/09 03:18:46;;;;;;;4.10;3.80;;;;;;;14.93;75.26;100785.30;214701;1273;140796;-64
2022/08/09 03:23:56;;;;;;;7.10;3.50;;;;;;;14.89;75.12;100783.33;214373;1274;140361;-64
2022/08/09 03:29:07;;;;;;;4.80;3.60;;;;;;;14.97;75.38;100785.16;214612;1272;140992;-64
2022/08/09 03:34:15;;;;;;;4.50;4.10;;;;;;;15.08;75.48;100786.49;214321;1274;140412;-64
2022/08/09 03:39:23;;;;;;;8.80;3.80;;;;;;;15.07;75.19;100785.73;214145;1274;139921;-65
2022/08/09 03:44:40;;;;;;;5.30;3.70;;;;;;;14.92;74.94;100787.84;214090;1272;139693;-65
2022/08/09 03:49:45;;;;;;;3.70;3.40;;;;;;;14.82;75.22;100784.36;213529;1274;140747;-64
2022/08/09 03:55:04;;;;;;;3.90;3.60;;;;;;;14.90;75.75;100786.85;213342;1274;140489;-64
2022/08/09 04:00:12;;;;;;;7.80;3.40;;;;;;;14.97;75.66;100785.84;214674;1274;141225;-65
2022/08/09 04:05:19;;;;;;;4.50;4.00;;;;;;;15.07;75.94;100783.52;213530;1274;140385;-64
2022/08/09 04:10:30;;;;;;;7.70;3.90;;;;;;;15.06;75.72;100788.77;214476;1274;140900;-64
2022/08/09 04:15:34;;;;;;;4.00;3.80;;;;;;;15.01;75.65;100790.31;215279;1274;140181;-65
2022/08/09 04:20:58;;;;;;;4.70;3.60;;;;;;;15.01;75.98;100786.14;214178;1274;140268;-64
2022/08/09 04:26:02;;;;;;;4.80;3.60;;;;;;;15.08;76.19;100781.98;216112;1274;141098;-65
2022/08/09 04:31:07;;;;;;;4.00;3.70;;;;;;;15.29;76.53;100793.01;215703;1274;139993;-64
2022/08/09 04:36:16;;;;;;;4.00;3.70;;;;;;;15.46;76.51;100794.95;216017;1273;139891;-65
2022/08/09 04:41:23;;;;;;;5.40;4.90;;;;;;;15.50;76.12;100798.25;216097;1274;139619;-64
2022/08/09 04:46:36;;;;;;;4.50;4.10;;;;;;;15.55;76.32;100806.10;215619;1274;139846;-65
2022/08/09 04:52:00;;;;;;;4.60;4.10;;;;;;;15.66;76.34;100807.05;215110;1274;141112;-64
2022/08/09 04:57:04;;;;;;;5.50;3.60;;;;;;;15.76;76.42;100807.23;214851;1274;140205;-64
2022/08/09 05:02:14;;;;;;;8.10;4.90;;;;;;;15.86;76.50;100807.52;214387;1274;140698;-66
2022/08/09 05:07:18;;;;;;;5.80;4.60;;;;;;;16.05;76.63;100811.33;213686;1274;140681;-64
2022/08/09 05:12:22;;;;;;;6.70;3.90;;;;;;;16.23;76.77;100811.70;214602;1274;140749;-65
2022/08/09 05:17:29;;;;;;;5.20;4.10;;;;;;;16.37;76.72;100811.92;214357;1274;142359;-63
2022/08/09 05:22:54;;;;;;;5.10;4.40;;;;;;;16.49;76.41;100817.44;213870;1275;142199;-64
2022/08/09 05:28:19;;;;;;;5.90;5.30;;;;;;;16.64;76.24;100824.98;213673;1274;141446;-64
2022/08/09 05:33:26;;;;;;;;;;;;;;;16.77;76.21;100833.30;213358;1274;141691;-64
2022/08/09 05:38:35;;;;;;;4.70;4.40;;;;;;;16.77;76.03;100831.86;214436;1273;126737;-64
2022/08/09 05:43:41;;;;;;;11.60;4.90;;;;;;;16.86;75.88;100833.19;213689;1274;141735;-64
2022/08/09 05:48:51;;;;;;;4.70;4.30;;;;;;;16.99;75.69;100830.20;213895;1274;141822;-64
2022/08/09 05:54:01;;;;;;;11.30;5.60;;;;;;;17.12;75.59;100838.17;214242;1274;141221;-64
2022/08/09 05:59:07;;;;;;;13.70;4.40;;;;;;;17.23;75.40;100841.90;214023;1274;141231;-64
2022/08/09 06:04:17;;;;;;;5.20;4.60;;;;;;;17.31;75.12;100842.12;214066;1274;142418;-65
2022/08/09 06:09:26;;;;;;;6.30;4.40;;;;;;;17.40;74.78;100848.37;214497;1272;140646;-64
2022/08/09 06:14:49;;;;;;;7.40;4.30;;;;;;;17.49;74.44;100851.90;213913;1274;141205;-64
2022/08/09 06:19:53;;;;;;;6.80;4.90;;;;;;;17.56;74.10;100851.70;213143;1271;141086;-65
2022/08/09 06:24:57;;;;;;;9.80;4.60;;;;;;;17.61;74.11;100851.77;214507;1273;140313;-65
2022/08/09 06:30:02;;;;;;;9.40;5.20;;;;;;;17.66;73.89;100853.14;215837;1274;140543;-64
2022/08/09 06:35:12;;;;;;;6.60;5.10;;;;;;;17.72;73.74;100856.06;215115;1274;140699;-64
2022/08/09 06:40:15;;;;;;;5.60;4.80;;;;;;;17.81;73.46;100856.58;215717;1273;140694;-64
2022/08/09 06:45:26;;;;;;;4.60;4.20;;;;;;;17.95;73.20;100856.71;216068;1274;140187;-64
2022/08/09 06:50:52;;;;;;;5.10;4.60;;;;;;;18.09;72.65;100862.21;216090;1274;139506;-64
2022/08/09 06:55:55;;;;;;;10.80;3.90;;;;;;;18.18;72.14;100865.77;214079;1274;141239;-63
2022/08/09 07:01:01;;;;;;;5.70;4.40;;;;;;;18.27;72.18;100869.24;214313;1274;140706;-64
2022/08/09 07:06:06;;;;;;;12.10;5.20;;;;;;;18.37;72.05;100876.64;214072;1274;140806;-64
2022/08/09 07:11:10;;;;;;;10.70;4.30;;;;;;;18.45;71.65;100878.38;213216;1274;141193;-64
2022/08/09 07:16:19;;;;;;;4.10;3.60;;;;;;;18.53;71.52;100882.49;214233;1274;141485;-64
2022/08/09 07:21:44;;;;;;;10.50;5.10;;;;;;;18.62;71.35;100882.48;213707;1273;140339;-65
2022/08/09 07:26:59;;;;;;;9.50;4.40;;;;;;;18.75;71.08;100878.13;214143;1274;140810;-64
2022/08/09 07:32:03;;;;;;;10.20;5.10;;;;;;;18.89;70.68;100880.92;214472;1273;140020;-64
2022/08/09 07:37:07;;;;;;;5.60;4.20;;;;;;;19.05;70.51;100888.89;213927;1274;139706;-64
2022/08/09 07:42:18;;;;;;;5.00;3.20;;;;;;;19.19;69.98;100893.39;213142;1274;140205;-63
2022/08/09 07:47:34;;;;;;;9.80;3.80;;;;;;;19.31;69.60;100896.13;214398;1274;140889;-64
2022/08/09 07:52:52;;;;;;;7.40;4.60;;;;;;;19.48;69.45;100905.36;213697;1274;139761;-64
2022/08/09 07:58:02;;;;;;;4.10;3.70;;;;;;;19.61;69.30;100901.36;214864;1273;140533;-64
2022/08/09 08:03:16;;;;;;;3.80;3.30;;;;;;;19.74;68.65;100900.55;214251;1274;139483;-64
2022/08/09 08:08:26;;;;;;;5.60;3.90;;;;;;;19.83;68.35;100907.00;214994;1274;139785;-63
2022/08/09 08:13:50;;;;;;;9.50;4.80;;;;;;;19.96;68.00;100906.30;214376;1274;141350;-64
2022/08/09 08:18:59;;;;;;;9.20;4.00;;;;;;;20.08;67.68;100910.02;215172;1274;139596;-64
2022/08/09 08:24:06;;;;;;;8.40;3.70;;;;;;;20.23;67.41;100908.12;216458;1274;140171;-64
2022/08/09 08:29:19;;;;;;;4.90;3.90;;;;;;;20.36;66.95;100912.21;216224;1273;140521;-64
2022/08/09 08:34:30;;;;;;;8.30;4.30;;;;;;;20.50;66.78;100915.52;215158;1274;140650;-64
2022/08/09 08:39:36;;;;;;;10.60;4.10;;;;;;;20.71;66.44;100911.82;216089;1274;141617;-64
2022/08/09 08:44:50;;;;;;;14.20;3.40;;;;;;;20.89;65.99;100912.59;213886;1274;143237;-64
2022/08/09 08:49:56;;;;;;;5.70;2.90;;;;;;;21.09;65.58;100912.97;214276;1273;141988;-65
2022/08/09 08:55:05;;;;;;;5.00;3.30;;;;;;;21.30;64.99;100922.59;213405;1274;232202;-63
2022/08/09 09:00:09;;;;;;;14.30;4.10;;;;;;;21.44;64.46;100931.42;214670;1273;141549;-64
2022/08/09 09:05:30;;;;;;;8.10;3.50;;;;;;;21.60;64.35;100931.47;214694;1274;140992;-63
2022/08/09 09:10:55;;;;;;;6.70;3.30;;;;;;;21.79;63.81;100932.98;214413;1274;151212;-64
2022/08/09 09:16:00;;;;;;;3.50;3.20;;;;;;;21.95;63.33;100932.27;213875;1274;140811;-65
2022/08/09 09:21:08;;;;;;;5.50;3.10;;;;;;;22.13;62.88;100932.14;213419;1272;142352;-63
2022/08/09 09:26:14;;;;;;;9.70;2.60;;;;;;;22.31;62.19;100933.65;214045;1271;140930;-65
2022/08/09 09:31:23;;;;;;;5.80;3.30;;;;;;;22.46;61.40;100938.85;213725;1274;140608;-63
2022/08/09 09:36:47;;;;;;;5.50;2.90;;;;;;;22.61;60.85;100939.27;213655;1274;140277;-64
2022/08/09 09:41:57;;;;;;;6.60;3.10;;;;;;;22.76;60.44;100944.14;213964;1274;140142;-64
2022/08/09 09:47:12;;;;;;;8.60;3.30;;;;;;;22.94;59.78;100944.03;213357;1274;143166;-64
2022/08/09 09:52:16;;;;;;;2.50;2.30;;;;;;;23.10;59.35;100947.99;213808;1274;141333;-63
2022/08/09 09:57:39;;;;;;;4.20;2.80;;;;;;;23.24;58.80;100944.80;214479;1273;141105;-64
2022/08/09 10:03:03;;;;;;;3.80;2.10;;;;;;;23.46;58.36;100941.83;215017;1273;221271;-63
2022/08/09 10:08:22;;;;;;;7.40;2.70;;;;;;;23.74;57.78;100942.46;214332;1273;141695;-64
2022/08/09 10:13:42;;;;;;;2.20;1.80;;;;;;;24.05;57.10;100940.54;215968;1274;139880;-64
2022/08/09 10:18:52;;;;;;;4.90;2.20;;;;;;;24.52;56.65;100936.61;216128;1274;140007;-64
2022/08/09 10:24:02;;;;;;;2.40;2.20;;;;;;;24.75;55.13;100938.61;216138;1274;141366;-64
2022/08/09 10:29:06;;;;;;;2.70;2.00;;;;;;;25.32;55.38;100932.50;216258;1274;141917;-64
2022/08/09 10:34:31;;;;;;;7.50;2.30;;;;;;;26.06;53.58;100933.50;215701;1274;141214;-63
2022/08/09 10:39:41;;;;;;;3.30;2.10;;;;;;;26.29;52.78;100929.11;215171;1274;141683;-63
2022/08/09 10:45:07;;;;;;;7.10;2.00;;;;;;;26.46;51.24;100926.59;215016;1273;139825;-64
2022/08/09 10:50:17;;;;;;;3.30;2.20;;;;;;;26.62;50.74;100926.79;215080;1274;141050;-64
2022/08/09 10:55:34;;;;;;;3.60;2.00;;;;;;;26.49;50.21;100919.13;215030;1273;139562;-64
2022/08/09 11:00:57;;;;;;;5.80;2.60;;;;;;;26.59;49.67;100919.21;214174;1273;140231;-64
2022/08/09 11:06:24;;;;;;;2.30;1.40;;;;;;;26.80;48.88;100915.30;214815;1274;139422;-64
2022/08/09 11:11:59;;;;;;;2.90;1.50;;;;;;;26.85;47.81;100910.63;213650;1274;139256;-64
2022/08/09 11:17:12;;;;;;;4.30;1.60;;;;;;;26.90;47.26;100909.83;214537;1274;140513;-64
2022/08/09 11:22:17;;;;;;;3.80;2.00;;;;;;;26.90;46.61;100909.98;214224;1274;140267;-64
2022/08/09 11:27:37;;;;;;;3.00;1.90;;;;;;;26.92;46.21;100906.33;213639;1274;142157;-64
2022/08/09 11:33:16;;;;;;;2.10;1.70;;;;;;;26.95;46.01;100905.77;213552;1274;140454;-63
2022/08/09 11:38:26;;;;;;;3.20;1.60;;;;;;;27.09;45.29;100903.60;214070;1274;140675;-63
2022/08/09 11:43:47;;;;;;;7.30;1.60;;;;;;;27.24;45.22;100898.55;215011;1274;140512;-64
2022/08/09 11:48:54;;;;;;;5.20;1.60;;;;;;;27.36;44.72;100897.23;214417;1274;142150;-64
2022/08/09 11:54:16;;;;;;;2.40;1.80;;;;;;;27.43;44.34;100890.13;215627;1273;140019;-64
2022/08/09 11:59:31;;;;;;;8.10;1.70;;;;;;;27.42;43.88;100888.48;214743;1274;139425;-64
2022/08/09 12:04:36;;;;;;;2.20;2.10;;;;;;;27.34;43.64;100887.42;214600;1274;139102;-65
2022/08/09 12:09:44;;;;;;;1.70;1.40;;;;;;;27.23;42.79;100881.34;214495;1274;139542;-64
2022/08/09 12:14:53;;;;;;;4.90;1.50;;;;;;;27.16;42.73;100878.05;216070;1273;141815;-64
2022/08/09 12:20:22;;;;;;;1.70;1.50;;;;;;;26.96;42.39;100873.73;216219;1274;139472;-64
2022/08/09 12:25:28;;;;;;;1.30;1.20;;;;;;;27.05;42.09;100869.81;216058;1274;140251;-64
2022/08/09 12:30:41;;;;;;;1.60;1.50;;;;;;;27.20;42.23;100865.64;215548;1274;140948;-64
2022/08/09 12:35:46;;;;;;;2.30;1.70;;;;;;;27.25;41.84;100861.35;215162;1274;140075;-63
2022/08/09 12:40:54;;;;;;;5.10;2.00;;;;;;;27.23;41.43;100858.99;214180;1274;141079;-64
2022/08/09 12:45:59;;;;;;;3.40;1.80;;;;;;;27.16;41.33;100861.29;214838;1272;140467;-63
2022/08/09 12:51:06;;;;;;;2.00;1.80;;;;;;;27.22;40.85;100854.78;215219;1274;140285;-64
2022/08/09 12:56:21;;;;;;;3.00;2.00;;;;;;;27.10;40.33;100857.69;214200;1274;141375;-64
2022/08/09 13:01:59;;;;;;;3.70;1.80;;;;;;;26.99;40.44;100856.96;213801;1274;143153;-64
2022/08/09 13:07:15;;;;;;;3.70;1.90;;;;;;;26.99;40.48;100862.29;212937;1271;141006;-63
2022/08/09 13:12:30;;;;;;;3.60;2.20;;;;;;;26.89;40.18;100856.84;213719;1274;141086;-63
2022/08/09 13:17:44;;;;;;;2.50;1.60;;;;;;;26.79;40.28;100858.98;213503;1274;141493;-63
2022/08/09 13:23:12;;;;;;;3.50;1.60;;;;;;;26.75;40.13;100855.33;213753;1274;141166;-63
2022/08/09 13:28:37;;;;;;;3.80;2.30;;;;;;;26.81;40.21;100846.33;214127;1274;139229;-63
2022/08/09 13:33:41;;;;;;;4.50;1.80;;;;;;;26.86;40.20;100839.92;214915;1274;140050;-63
2022/08/09 13:38:56;;;;;;;5.20;2.40;;;;;;;26.72;40.00;100831.71;214326;1272;140023;-64
2022/08/09 13:44:06;;;;;;;3.10;1.80;;;;;;;26.65;40.26;100827.08;212864;1274;141041;-59
2022/08/09 13:49:10;;;;;;;2.00;1.80;;;;;;;26.70;40.45;100830.19;212583;1274;1851331;-63
2022/08/09 13:54:20;;;;;;;4.10;2.10;;;;;;;26.65;40.21;100832.45;214799;1274;141675;-63
2022/08/09 13:59:27;;;;;;;4.40;2.30;;;;;;;26.47;40.34;100835.89;214635;1274;140457;-63
2022/08/09 14:04:44;;;;;;;2.80;2.00;;;;;;;26.47;40.52;100835.34;215697;1274;141226;-63
2022/08/09 14:10:04;;;;;;;4.50;2.20;;;;;;;26.31;40.46;100838.88;215907;1274;140748;-64
2022/08/09 14:15:07;;;;;;;5.00;2.10;;;;;;;26.08;40.43;100844.73;213222;1274;140093;-64
2022/08/09 14:20:32;;;;;;;2.70;2.20;;;;;;;25.68;40.55;100848.54;215978;1274;139559;-62
2022/08/09 14:25:38;;;;;;;2.70;2.50;;;;;;;25.45;41.21;100853.29;215403;1273;139559;-63
2022/08/09 14:30:48;;;;;;;4.00;2.50;;;;;;;25.10;42.38;100868.55;215080;1275;140451;-63
2022/08/09 14:35:53;;;;;;;4.00;2.70;;;;;;;24.31;42.92;100887.34;214542;1274;140933;-63
2022/08/09 14:41:04;;;;;;;4.50;2.70;;;;;;;23.65;44.59;100892.10;213617;1274;140086;-64
2022/08/09 14:46:32;;;;;;;3.10;2.30;;;;;;;23.20;45.43;100900.13;214369;1274;139668;-63
2022/08/09 14:52:00;;;;;;;3.80;2.60;;;;;;;22.62;46.16;100901.87;213841;1274;140274;-63
2022/08/09 14:57:10;;;;;;;3.50;2.40;;;;;;;22.07;47.38;100903.02;214850;1274;206079;-63
2022/08/09 15:02:21;;;;;;;3.00;2.60;;;;;;;21.65;48.47;100898.71;214080;1274;140685;-61
2022/08/09 15:07:32;;;;;;;3.00;2.40;;;;;;;21.32;49.47;100898.32;214267;1277;164033;-63
2022/08/09 15:12:42;;;;;;;12.10;2.60;;;;;;;20.99;50.24;100905.13;213695;1274;139363;-62
2022/08/09 15:17:53;;;;;;;7.60;2.80;;;;;;;20.64;51.13;100905.77;213382;1274;151286;-64
2022/08/09 15:23:07;;;;;;;2.90;2.50;;;;;;;20.32;52.07;100904.04;214551;1274;141474;-65
2022/08/09 15:28:36;;;;;;;2.50;2.30;;;;;;;20.00;53.04;100909.61;213545;1274;139548;-64
2022/08/09 15:33:47;;;;;;;2.00;1.90;;;;;;;19.77;53.81;100908.50;213811;1274;140083;-63
2022/08/09 15:39:15;;;;;;;2.20;2.10;;;;;;;19.53;54.55;100903.55;214055;1274;140099;-65
2022/08/09 15:44:23;;;;;;;5.00;2.20;;;;;;;19.32;55.32;100897.77;214278;1274;140275;-66
2022/08/09 15:49:37;;;;;;;6.60;2.40;;;;;;;19.18;55.69;100899.39;215130;1274;140426;-65
2022/08/09 15:55:05;;;;;;;4.70;2.40;;;;;;;19.07;56.15;100893.55;214307;1274;140112;-63
2022/08/09 16:00:17;;;;;;;2.50;2.20;;;;;;;19.03;56.46;100881.52;214712;1274;140113;-67
2022/08/09 16:05:29;;;;;;;2.10;2.00;;;;;;;19.06;56.65;100865.70;214437;1274;139348;-64
2022/08/09 16:10:53;;;;;;;1.80;1.70;;;;;;;19.10;56.60;100861.84;215240;1274;139801;-64
2022/08/09 16:15:59;;;;;;;4.70;2.00;;;;;;;19.16;56.70;100859.11;215146;1274;140460;-65
2022/08/09 16:21:19;;;;;;;2.00;1.80;;;;;;;19.22;57.48;100854.21;215957;1274;139505;-65
2022/08/09 16:26:33;;;;;;;2.60;1.60;;;;;;;19.27;57.71;100847.89;215988;1273;140269;-65
2022/08/09 16:31:44;;;;;;;3.30;3.00;;;;;;;19.29;57.64;100827.45;214917;1274;141369;-64
2022/08/09 16:37:12;;;;;;;5.40;2.60;;;;;;;19.28;57.84;100815.72;215872;1274;143093;-64
2022/08/09 16:42:17;;;;;;;4.70;2.10;;;;;;;19.32;58.20;100841.31;214939;1274;142374;-63
2022/08/09 16:47:36;;;;;;;1.80;1.70;;;;;;;19.35;57.99;100845.20;215200;1274;142356;-64
2022/08/09 16:53:01;;;;;;;3.90;2.30;;;;;;;19.29;58.40;100843.90;213812;1274;141895;-64
2022/08/09 16:58:07;;;;;;;1.90;1.80;;;;;;;19.28;59.01;100843.30;214357;1274;141064;-64
2022/08/09 17:03:13;;;;;;;2.40;2.20;;;;;;;19.31;59.26;100836.48;214907;1274;140256;-64
2022/08/09 17:08:26;;;;;;;5.40;3.60;;;;;;;19.36;59.63;100837.11;213384;1274;142380;-64
2022/08/09 17:13:50;;;;;;;3.40;3.00;;;;;;;19.36;59.83;100835.37;214074;1274;141372;-63
2022/08/09 17:19:05;;;;;;;3.60;2.70;;;;;;;19.35;59.87;100844.61;213411;1274;141277;-65
2022/08/09 17:24:12;;;;;;;2.30;2.20;;;;;;;19.37;60.14;100845.55;215033;1274;140892;-65
2022/08/09 17:29:36;;;;;;;3.80;2.40;;;;;;;19.42;59.76;100853.04;214810;1274;140733;-64
2022/08/09 17:34:43;;;;;;;4.10;2.20;;;;;;;19.50;59.75;100850.97;214043;1274;141038;-65
2022/08/09 17:40:07;;;;;;;8.60;2.50;;;;;;;19.54;60.02;100848.34;214699;1274;141860;-63
2022/08/09 17:45:20;;;;;;;2.80;2.30;;;;;;;19.55;60.46;100850.99;214338;1274;140527;-61
2022/08/09 17:50:30;;;;;;;2.80;2.10;;;;;;;19.52;60.46;100848.98;215291;1274;140435;-63
2022/08/09 17:55:39;;;;;;;4.40;2.40;;;;;;;19.43;60.79;100850.48;215031;1274;139884;-63
2022/08/09 18:00:53;;;;;;;5.30;2.50;;;;;;;19.37;61.09;100846.73;216150;1274;141104;-65
2022/08/09 18:06:00;;;;;;;4.80;2.60;;;;;;;19.30;61.13;100843.74;216011;1274;140938;-64
2022/08/09 18:11:04;;;;;;;3.60;2.70;;;;;;;19.17;61.33;100848.08;216049;1274;142678;-65
2022/08/09 18:16:19;;;;;;;3.60;2.60;;;;;;;19.10;61.59;100852.10;215294;1275;140811;-63
2022/08/09 18:21:33;;;;;;;7.70;3.20;;;;;;;19.02;61.80;100852.98;215911;1274;139762;-63
2022/08/09 18:26:44;;;;;;;6.70;3.00;;;;;;;18.90;62.03;100859.48;215143;1274;141101;-67
2022/08/09 18:31:52;;;;;;;2.90;2.60;;;;;;;18.67;62.18;100861.81;214597;1272;139919;-64
2022/08/09 18:37:02;;;;;;;5.20;3.50;;;;;;;18.46;62.89;100869.10;214743;1274;140318;-66
2022/08/09 18:42:06;;;;;;;;;;;;;;;18.40;63.56;100870.99;214305;1274;141379;-65
2022/08/09 18:47:14;;;;;;;2.30;2.20;;;;;;;18.31;63.92;100876.71;213762;1274;128208;-65
2022/08/09 18:52:24;;;;;;;6.10;3.20;;;;;;;18.21;64.03;100885.17;214143;1274;141417;-64
2022/08/09 18:57:39;;;;;;;6.40;3.20;;;;;;;18.09;64.22;100884.02;213281;1274;140903;-64
2022/08/09 19:02:51;;;;;;;12.40;3.80;;;;;;;17.99;64.57;100887.02;214900;1274;140202;-63
2022/08/09 19:07:58;;;;;;;9.80;3.00;;;;;;;17.81;64.72;100883.17;213571;1274;141331;-64
2022/08/09 19:13:15;;;;;;;;;;;;;;;17.59;64.91;100886.64;214154;1274;141600;-63
2022/08/09 19:18:26;;;;;;;4.30;2.60;;;;;;;17.35;65.27;100887.76;214835;1274;128039;-64
2022/08/09 19:23:41;;;;;;;6.00;3.80;;;;;;;17.17;65.55;100888.45;213194;1274;141752;-64
2022/08/09 19:29:09;;;;;;;5.10;3.50;;;;;;;17.11;66.18;100898.67;213947;1274;141323;-65
2022/08/09 19:34:23;;;;;;;6.00;3.40;;;;;;;17.11;66.26;100897.77;214584;1274;141636;-64
2022/08/09 19:39:29;;;;;;;4.30;3.80;;;;;;;17.06;66.22;100893.38;214734;1274;141266;-64
2022/08/09 19:44:53;;;;;;;6.60;2.80;;;;;;;16.80;66.02;100891.78;214070;1274;141104;-64
2022/08/09 19:50:00;;;;;;;6.90;3.20;;;;;;;16.71;66.58;100892.30;215146;1274;140669;-66
2022/08/09 19:55:26;;;;;;;5.10;3.20;;;;;;;16.69;66.58;100892.70;214831;1273;140928;-64
2022/08/09 20:00:51;;;;;;;4.20;3.90;;;;;;;16.64;66.59;100897.98;216008;1274;142456;-65
2022/08/09 20:06:02;;;;;;;4.10;3.30;;;;;;;16.50;66.37;100899.85;216226;1273;142002;-63
2022/08/09 20:11:26;;;;;;;3.30;2.50;;;;;;;16.14;66.13;100899.91;215976;1273;143338;-63
2022/08/09 20:16:47;;;;;;;5.20;3.20;;;;;;;15.87;66.57;100901.27;215560;1274;142283;-64
2022/08/09 20:21:57;;;;;;;5.40;3.20;;;;;;;15.77;67.14;100904.58;215411;1274;140912;-64
2022/08/09 20:27:04;;;;;;;3.60;3.30;;;;;;;15.69;67.07;100904.31;214526;1274;163630;-65
2022/08/09 20:32:13;;;;;;;4.40;3.50;;;;;;;15.55;67.34;100912.73;215677;1274;141855;-65
2022/08/09 20:37:38;;;;;;;3.70;2.90;;;;;;;15.52;67.50;100909.70;213515;1274;141755;-64
2022/08/09 20:43:03;;;;;;;9.70;3.70;;;;;;;15.49;67.76;100912.87;214351;1273;209355;-64
2022/08/09 20:48:28;;;;;;;5.90;2.90;;;;;;;15.40;67.96;100911.23;213316;1274;140583;-64
2022/08/09 20:53:34;;;;;;;8.20;3.10;;;;;;;15.33;68.09;100914.63;214128;1272;142176;-64
2022/08/09 20:58:42;;;;;;;5.40;3.90;;;;;;;15.27;68.14;100914.89;213256;1274;141147;-63
2022/08/09 21:03:48;;;;;;;4.00;3.70;;;;;;;15.22;68.44;100920.81;214142;1273;142237;-66
2022/08/09 21:09:13;;;;;;;4.10;3.70;;;;;;;15.13;68.40;100912.88;213799;1274;142669;-64
2022/08/09 21:14:38;;;;;;;5.20;3.00;;;;;;;14.93;68.06;100915.50;213408;1274;142278;-61
2022/08/09 21:19:45;;;;;;;4.50;3.80;;;;;;;14.78;68.41;100916.61;214418;1274;141377;-66
2022/08/09 21:30:41;;;;;;;3.60;3.30;;;;;;;14.44;68.56;100924.04;214243;1274;140536;-63
2022/08/09 21:35:47;;;;;;;4.30;3.70;;;;;;;14.34;69.12;100928.15;214407;1274;141836;-63
2022/08/09 21:40:55;;;;;;;4.30;3.90;;;;;;;14.31;69.27;100933.16;213232;1274;141717;-63
2022/08/09 21:45:59;;;;;;;4.50;3.80;;;;;;;14.13;69.13;100936.17;216128;1274;141969;-67
2022/08/09 21:51:04;;;;;;;7.90;4.40;;;;;;;13.82;68.98;100938.09;214072;1274;141871;-64
2022/08/09 21:56:18;;;;;;;6.20;4.30;;;;;;;13.64;69.56;100937.13;214753;1274;141046;-66
2022/08/09 22:01:47;;;;;;;5.20;4.70;;;;;;;13.56;70.06;100938.02;215982;1274;139887;-65
2022/08/09 22:07:04;;;;;;;5.30;3.60;;;;;;;13.57;70.04;100939.11;216096;1274;154824;-64
2022/08/09 22:12:10;;;;;;;6.80;3.90;;;;;;;13.51;70.01;100934.53;216253;1272;140872;-64
2022/08/09 22:17:28;;;;;;;4.10;3.80;;;;;;;13.46;70.27;100934.83;215437;1274;140267;-62
2022/08/09 22:22:35;;;;;;;4.70;4.30;;;;;;;13.42;70.57;100933.66;213982;1274;141279;-67
2022/08/09 22:27:42;;;;;;;4.00;3.60;;;;;;;13.36;70.41;100935.05;215168;1273;140709;-63
2022/08/09 22:32:46;;;;;;;4.20;3.80;;;;;;;13.21;70.86;100934.09;214604;1274;141864;-62
2022/08/09 22:37:53;;;;;;;5.10;3.80;;;;;;;13.19;70.91;100926.36;214297;1274;141591;-62
2022/08/09 22:43:11;;;;;;;6.10;4.90;;;;;;;13.13;71.14;100930.66;213991;1272;151251;-64
2022/08/09 22:48:28;;;;;;;;;;;;;;;13.15;71.21;100926.25;214676;1274;143621;-64
2022/08/09 22:53:35;;;;;;;;;;;;;;;13.14;71.30;100929.55;214928;1274;130507;-62
2022/08/09 22:59:04;;;;;;;4.50;4.20;;;;;;;13.17;71.64;100932.32;215685;1272;127502;-64
2022/08/09 23:04:29;;;;;;;4.60;4.20;;;;;;;13.17;71.80;100926.05;213544;1274;140710;-65
2022/08/09 23:09:35;;;;;;;8.00;5.40;;;;;;;13.17;71.88;100927.05;214279;1274;139961;-66
2022/08/09 23:14:39;;;;;;;6.90;4.90;;;;;;;13.21;72.10;100928.41;214433;1272;141078;-65
2022/08/09 23:19:46;;;;;;;5.70;4.70;;;;;;;13.20;71.81;100925.17;214528;1274;141405;-64
2022/08/09 23:25:11;;;;;;;4.30;3.70;;;;;;;12.99;71.38;100921.90;214372;1274;140597;-65
2022/08/09 23:30:15;;;;;;;5.40;4.80;;;;;;;12.83;71.63;100924.00;214816;1274;141179;-66
2022/08/09 23:35:19;;;;;;;5.10;4.20;;;;;;;12.80;72.37;100923.30;214285;1274;140563;-65
2022/08/09 23:40:23;;;;;;;4.40;4.00;;;;;;;12.71;71.65;100924.52;213750;1276;142419;-65
2022/08/09 23:45:27;;;;;;;4.80;4.30;;;;;;;12.55;71.89;100922.73;213592;1271;142546;-66
2022/08/09 23:50:41;;;;;;;7.30;6.60;;;;;;;12.40;72.06;100923.67;215530;1273;141037;-66